Terminal Aerodrome Forecast
Issued by NWS

Home | Current Version | Previous Version | Text Only | Print | Product List | Glossary On
Versions: 1 2 3 4 5 6 7 8 9 10 11 12 13 14 15 16 17 18
000
FTUS42 KILM 060539
TAFCRE
TAF
KCRE 060539Z 0606/0706 06003KT 4SM BR BKN250
     FM061300 09012KT P6SM SCT040 BKN250
     FM070400 06008KT P6SM VCSH SCT035 BKN120 OVC200=

USA.gov is the U.S. government's official web portal to all federal, state and local government web resources and services.